Terminal Aerodrome Forecast
Issued by NWS St Louis, MO

Home | Current Version | Previous Version | Text Only | Print | Product List | Glossary Off
Versions: 1 2 3 4 5 6 7 8 9 10 11 12 13 14 15 16 17 18 19 20 21 22 23 24 25 26 27

000
FTUS43 KLSX 280858 AAB
TAFSTL
TAF AMD
KSTL 280858Z 2809/0112 18010KT P6SM SCT025 BKN045
      TEMPO 2809/2811 BKN025
     FM281100 17009KT P6SM BKN025
     FM281500 19015G23KT P6SM BKN070
     FM010000 21011G21KT P6SM VCTS SCT025CB BKN090
     FM010800 26010KT 3SM -SHRA VCTS SCT025CB OVC040=

USA.gov is the U.S. government's official web portal to all federal, state and local government web resources and services.